createdAt,value
2023-03-07T00:00:50.493Z,11.80
2023-03-07T00:03:39.173Z,11.80
2023-03-07T00:06:27.164Z,11.80
2023-03-07T00:09:14.724Z,11.80
2023-03-07T00:12:02.176Z,11.80
2023-03-07T00:14:49.704Z,11.80
2023-03-07T00:17:38.683Z,11.90
2023-03-07T00:20:26.134Z,11.90
2023-03-07T00:23:13.552Z,11.90
2023-03-07T00:26:16.580Z,11.90
2023-03-07T00:29:04.043Z,11.80
2023-03-07T00:31:51.578Z,11.80
2023-03-07T00:34:39.065Z,11.80
2023-03-07T00:37:26.823Z,11.70
2023-03-07T00:40:15.767Z,11.70
2023-03-07T00:43:03.308Z,11.70
2023-03-07T00:45:50.963Z,11.70
2023-03-07T00:48:40.775Z,11.70
2023-03-07T00:51:28.303Z,11.70
2023-03-07T00:54:15.814Z,11.70
2023-03-07T00:57:03.406Z,11.60
2023-03-07T00:59:50.865Z,11.60
2023-03-07T01:02:38.350Z,11.60
2023-03-07T01:05:25.925Z,11.60
2023-03-07T01:08:14.706Z,11.60
2023-03-07T01:11:05.353Z,11.60
2023-03-07T01:13:57.574Z,11.60
2023-03-07T01:16:45.109Z,11.50
2023-03-07T01:19:33.052Z,11.60
2023-03-07T01:22:20.506Z,11.60
2023-03-07T01:25:08.577Z,11.50
2023-03-07T01:27:56.740Z,11.50
2023-03-07T01:30:44.598Z,11.50
2023-03-07T01:33:32.091Z,11.60
2023-03-07T01:36:21.279Z,11.60
2023-03-07T01:39:14.792Z,11.60
2023-03-07T01:42:02.422Z,11.50
2023-03-07T01:45:34.645Z,11.60
2023-03-07T01:48:23.048Z,11.50
2023-03-07T01:51:11.364Z,11.60
2023-03-07T01:54:01.146Z,11.60
2023-03-07T01:56:49.278Z,11.60
2023-03-07T01:59:44.735Z,11.60
2023-03-07T02:02:34.150Z,11.60
2023-03-07T02:05:32.766Z,11.60
2023-03-07T02:08:26.532Z,11.50
2023-03-07T02:11:15.730Z,11.50
2023-03-07T02:14:03.241Z,11.40
2023-03-07T02:16:52.663Z,11.40
2023-03-07T02:19:48.935Z,11.50
2023-03-07T02:22:36.443Z,11.40
2023-03-07T02:25:56.596Z,11.50
2023-03-07T02:28:46.514Z,11.40
2023-03-07T02:31:34.016Z,11.30
2023-03-07T02:34:24.735Z,11.30
2023-03-07T02:37:23.118Z,11.40
2023-03-07T02:40:16.604Z,11.40
2023-03-07T02:43:09.615Z,11.50
2023-03-07T02:45:57.374Z,11.40
2023-03-07T02:48:44.896Z,11.40
2023-03-07T02:51:32.634Z,11.40
2023-03-07T02:54:20.136Z,11.30
2023-03-07T02:57:07.751Z,11.20
2023-03-07T02:59:55.189Z,11.20
2023-03-07T03:02:42.639Z,11.30
2023-03-07T03:05:30.216Z,11.30
2023-03-07T03:08:17.685Z,11.40
2023-03-07T03:11:05.459Z,11.30
2023-03-07T03:13:52.937Z,11.40
2023-03-07T03:16:40.417Z,11.30
2023-03-07T03:19:30.030Z,11.30
2023-03-07T03:22:17.588Z,11.30
2023-03-07T03:25:09.921Z,11.40
2023-03-07T03:27:57.564Z,11.40
2023-03-07T03:30:44.981Z,11.40
2023-03-07T03:33:33.217Z,11.40
2023-03-07T03:36:21.845Z,11.40
2023-03-07T03:39:11.215Z,11.40
2023-03-07T03:41:58.744Z,11.40
2023-03-07T03:44:46.282Z,11.30
2023-03-07T03:47:33.762Z,11.40
2023-03-07T03:50:21.198Z,11.30
2023-03-07T03:53:08.658Z,11.30
2023-03-07T03:56:16.208Z,11.30
2023-03-07T03:59:04.571Z,11.20
2023-03-07T04:01:52.208Z,11.20
2023-03-07T04:04:39.955Z,11.20
2023-03-07T04:07:29.460Z,11.30
2023-03-07T04:10:17.189Z,11.30
2023-03-07T04:13:04.663Z,11.30
2023-03-07T04:15:52.708Z,11.30
2023-03-07T04:18:40.542Z,11.20
2023-03-07T04:21:28.014Z,11.30
2023-03-07T04:24:15.486Z,11.40
2023-03-07T04:27:02.986Z,11.30
2023-03-07T04:29:50.442Z,11.40
2023-03-07T04:32:39.526Z,11.30
2023-03-07T04:35:27.402Z,11.30
2023-03-07T04:38:16.155Z,11.30
2023-03-07T04:41:03.949Z,11.30
2023-03-07T04:43:51.423Z,11.10
2023-03-07T04:46:39.760Z,11.10
2023-03-07T04:49:27.256Z,11.10
2023-03-07T04:52:14.888Z,11.00
2023-03-07T04:55:02.387Z,11.00
2023-03-07T04:57:51.392Z,11.00
2023-03-07T05:00:45.052Z,11.00
2023-03-07T05:03:33.657Z,10.90
2023-03-07T05:06:21.186Z,10.90
2023-03-07T05:09:08.607Z,11.00
2023-03-07T05:11:56.157Z,10.80
2023-03-07T05:14:43.615Z,10.70
2023-03-07T05:17:31.739Z,10.70
2023-03-07T05:20:19.834Z,10.60
2023-03-07T05:23:07.266Z,10.20
2023-03-07T05:25:54.952Z,10.30
2023-03-07T05:28:42.426Z,10.60
2023-03-07T05:31:29.882Z,10.70
2023-03-07T05:34:17.657Z,10.80
2023-03-07T05:37:05.611Z,10.80
2023-03-07T05:39:53.068Z,10.80
2023-03-07T05:42:40.522Z,11.00
2023-03-07T05:45:28.038Z,11.00
2023-03-07T05:48:15.508Z,11.10
2023-03-07T05:51:03.021Z,11.00
2023-03-07T05:53:50.511Z,10.70
2023-03-07T05:56:37.984Z,10.40
2023-03-07T05:59:25.507Z,10.70
2023-03-07T06:02:13.246Z,10.90
2023-03-07T06:05:00.649Z,11.00
2023-03-07T06:07:49.835Z,11.10
2023-03-07T06:10:40.118Z,11.20
2023-03-07T06:13:28.181Z,11.20
2023-03-07T06:16:15.731Z,11.40
2023-03-07T06:19:03.168Z,11.40
2023-03-07T06:21:50.622Z,11.60
2023-03-07T06:24:38.281Z,11.60
2023-03-07T06:27:26.291Z,11.70
2023-03-07T06:30:14.216Z,11.80
2023-03-07T06:33:01.855Z,12.00
2023-03-07T06:35:49.390Z,12.10
2023-03-07T06:38:37.293Z,12.20
2023-03-07T06:41:24.732Z,12.20
2023-03-07T06:44:12.160Z,12.50
2023-03-07T06:46:59.698Z,12.60
2023-03-07T06:49:47.154Z,12.70
2023-03-07T06:52:34.784Z,12.70
2023-03-07T06:55:22.518Z,12.80
2023-03-07T06:58:09.944Z,13.10
2023-03-07T07:00:57.485Z,13.00
2023-03-07T07:03:45.157Z,13.30
2023-03-07T07:06:32.669Z,13.40
2023-03-07T07:09:20.128Z,13.50
2023-03-07T07:12:08.061Z,13.60
2023-03-07T07:14:55.558Z,13.60
2023-03-07T07:17:43.027Z,13.70
2023-03-07T07:20:30.570Z,13.90
2023-03-07T07:23:20.683Z,14.10
2023-03-07T07:26:08.645Z,14.10
2023-03-07T07:28:56.126Z,14.50
2023-03-07T07:31:43.806Z,14.50
2023-03-07T07:34:31.625Z,14.40
2023-03-07T07:37:19.093Z,14.70
2023-03-07T07:40:10.678Z,14.50
2023-03-07T07:42:58.139Z,14.50
2023-03-07T07:45:45.668Z,14.40
2023-03-07T07:48:33.694Z,14.60
2023-03-07T07:51:21.596Z,14.60
2023-03-07T07:54:09.776Z,14.50
2023-03-07T07:56:58.288Z,14.70
2023-03-07T07:59:45.743Z,14.30
2023-03-07T08:02:36.027Z,14.80
2023-03-07T08:05:23.798Z,14.80
2023-03-07T08:08:11.288Z,15.20
2023-03-07T08:10:58.749Z,15.30
2023-03-07T08:13:46.740Z,15.40
2023-03-07T08:16:34.232Z,15.80
2023-03-07T08:19:21.639Z,15.70
2023-03-07T08:22:09.111Z,16.10
2023-03-07T08:24:56.601Z,15.90
2023-03-07T08:27:44.101Z,16.40
2023-03-07T08:30:35.451Z,16.10
2023-03-07T08:33:22.920Z,15.80
2023-03-07T08:36:10.583Z,15.70
2023-03-07T08:38:58.009Z,15.20
2023-03-07T08:41:45.755Z,15.70
2023-03-07T08:44:33.267Z,15.80
2023-03-07T08:47:20.674Z,16.50
2023-03-07T08:50:11.168Z,16.40
2023-03-07T08:52:58.673Z,16.60
2023-03-07T08:55:46.289Z,16.60
2023-03-07T08:58:33.752Z,16.20
2023-03-07T09:01:21.472Z,16.60
2023-03-07T09:04:09.260Z,16.30
2023-03-07T09:07:01.535Z,16.50
2023-03-07T09:09:49.304Z,17.20
2023-03-07T09:12:36.742Z,17.00
2023-03-07T09:15:24.480Z,16.90
2023-03-07T09:18:12.588Z,17.30
2023-03-07T09:21:07.109Z,17.40
2023-03-07T09:23:54.624Z,17.40
2023-03-07T09:26:42.096Z,17.00
2023-03-07T09:29:29.553Z,17.60
2023-03-07T09:32:17.053Z,17.90
2023-03-07T09:35:04.928Z,17.90
2023-03-07T09:37:52.421Z,18.10
2023-03-07T09:40:40.044Z,18.50
2023-03-07T09:43:51.695Z,18.80
2023-03-07T09:47:10.684Z,18.60
2023-03-07T09:50:02.610Z,17.80
2023-03-07T09:52:53.848Z,17.70
2023-03-07T09:55:42.403Z,18.40
2023-03-07T09:58:30.039Z,17.30
2023-03-07T10:01:25.124Z,17.70
2023-03-07T10:04:26.359Z,17.60
2023-03-07T10:07:17.140Z,17.70
2023-03-07T10:10:18.948Z,18.20
2023-03-07T10:13:22.769Z,18.70
2023-03-07T10:16:45.651Z,18.80
2023-03-07T10:19:54.542Z,18.50
2023-03-07T10:23:26.397Z,18.20
2023-03-07T10:26:29.189Z,18.20
2023-03-07T10:29:27.661Z,18.50
2023-03-07T10:32:39.660Z,19.00
2023-03-07T10:35:48.785Z,19.10
2023-03-07T10:38:55.529Z,19.10
2023-03-07T10:41:43.316Z,18.30
2023-03-07T10:44:34.797Z,19.10
2023-03-07T10:47:29.254Z,18.80
2023-03-07T10:51:06.427Z,19.50
2023-03-07T10:53:56.993Z,19.30
2023-03-07T10:57:16.629Z,19.40
2023-03-07T11:00:18.397Z,18.90
2023-03-07T11:03:42.520Z,18.90
2023-03-07T11:06:40.370Z,19.10
2023-03-07T11:09:34.703Z,18.90
2023-03-07T11:12:24.954Z,19.00
2023-03-07T11:15:23.682Z,19.00
2023-03-07T11:18:41.960Z,19.30
2023-03-07T11:21:35.531Z,19.40
2023-03-07T11:24:29.299Z,19.20
2023-03-07T11:27:52.636Z,19.20
2023-03-07T11:31:00.587Z,19.30
2023-03-07T11:33:59.544Z,19.40
2023-03-07T11:37:24.944Z,19.00
2023-03-07T11:41:11.618Z,19.50
2023-03-07T11:44:14.323Z,19.40
2023-03-07T11:47:20.560Z,19.20
2023-03-07T11:50:25.208Z,19.70
2023-03-07T11:53:30.670Z,19.70
2023-03-07T11:56:50.075Z,19.60
2023-03-07T12:00:00.761Z,19.10
2023-03-07T12:03:32.844Z,19.60
2023-03-07T12:06:49.154Z,19.70
2023-03-07T12:09:52.489Z,19.50
2023-03-07T12:13:13.978Z,19.50
2023-03-07T12:16:24.460Z,19.30
2023-03-07T12:19:37.622Z,19.40
2023-03-07T12:22:38.468Z,19.70
2023-03-07T12:25:37.496Z,19.60
2023-03-07T12:28:46.595Z,19.30
2023-03-07T12:31:43.221Z,19.60
2023-03-07T12:35:18.135Z,19.30
2023-03-07T12:38:25.858Z,19.80
2023-03-07T12:41:43.278Z,19.70
2023-03-07T12:44:41.083Z,19.90
2023-03-07T12:47:53.717Z,19.40
2023-03-07T12:51:21.369Z,20.00
2023-03-07T12:54:30.075Z,19.90
2023-03-07T12:57:32.264Z,19.30
2023-03-07T13:00:23.581Z,19.00
2023-03-07T13:03:24.063Z,18.80
2023-03-07T13:06:20.394Z,19.00
2023-03-07T13:09:26.039Z,19.40
2023-03-07T13:12:16.358Z,19.00
2023-03-07T13:15:07.059Z,19.60
2023-03-07T13:17:55.587Z,19.30
2023-03-07T13:20:45.530Z,19.80
2023-03-07T13:23:33.086Z,20.00
2023-03-07T13:26:24.635Z,20.10
2023-03-07T13:29:13.449Z,20.00
2023-03-07T13:32:00.934Z,19.70
2023-03-07T13:34:49.786Z,19.90
2023-03-07T13:37:55.547Z,19.70
2023-03-07T13:40:48.684Z,19.90
2023-03-07T13:44:00.022Z,19.90
2023-03-07T13:46:48.509Z,19.30
2023-03-07T13:49:42.157Z,19.60
2023-03-07T13:52:37.874Z,18.60
2023-03-07T13:55:29.089Z,18.90
2023-03-07T13:58:34.663Z,19.40
2023-03-07T14:01:47.127Z,19.30
2023-03-07T14:04:54.269Z,19.80
2023-03-07T14:07:43.069Z,19.80
2023-03-07T14:10:31.820Z,19.90
2023-03-07T14:14:05.185Z,19.60
2023-03-07T14:17:33.596Z,19.30
2023-03-07T14:21:01.160Z,18.80
2023-03-07T14:24:40.264Z,19.30
2023-03-07T14:27:27.869Z,19.30
2023-03-07T14:30:17.502Z,19.40
2023-03-07T14:33:05.047Z,19.30
2023-03-07T14:35:52.668Z,19.50
2023-03-07T14:38:45.066Z,19.70
2023-03-07T14:41:46.736Z,19.70
2023-03-07T14:45:10.483Z,19.90
2023-03-07T14:48:19.986Z,19.80
2023-03-07T14:51:30.854Z,19.60
2023-03-07T14:54:25.619Z,19.80
2023-03-07T14:57:31.765Z,19.20
2023-03-07T15:00:24.697Z,19.40
2023-03-07T15:03:15.056Z,19.30
2023-03-07T15:06:03.606Z,19.00
2023-03-07T15:08:55.789Z,19.50
2023-03-07T15:11:58.499Z,18.90
2023-03-07T15:14:58.833Z,18.50
2023-03-07T15:17:47.290Z,19.20
2023-03-07T15:20:35.738Z,19.00
2023-03-07T15:23:30.310Z,18.80
2023-03-07T15:26:21.426Z,18.90
2023-03-07T15:29:09.355Z,18.90
2023-03-07T15:32:07.353Z,18.60
2023-03-07T15:35:11.155Z,18.60
2023-03-07T15:38:23.620Z,18.10
2023-03-07T15:41:36.465Z,18.10
2023-03-07T15:44:24.196Z,18.10
2023-03-07T15:47:18.029Z,18.20
2023-03-07T15:50:19.652Z,18.10
2023-03-07T15:53:17.605Z,17.90
2023-03-07T15:56:34.789Z,18.30
2023-03-07T15:59:38.139Z,17.90
2023-03-07T16:02:31.949Z,18.10
2023-03-07T16:05:25.268Z,18.00
2023-03-07T16:08:16.697Z,18.00
2023-03-07T16:11:11.915Z,17.80
2023-03-07T16:14:00.097Z,17.70
2023-03-07T16:16:48.737Z,17.60
2023-03-07T16:19:36.435Z,17.60
2023-03-07T16:22:24.031Z,17.50
2023-03-07T16:25:12.036Z,17.40
2023-03-07T16:28:00.764Z,17.20
2023-03-07T16:30:48.681Z,16.90
2023-03-07T16:33:36.252Z,17.10
2023-03-07T16:36:24.071Z,17.00
2023-03-07T16:39:12.830Z,17.00
2023-03-07T16:42:01.135Z,16.70
2023-03-07T16:44:49.676Z,16.70
2023-03-07T16:47:37.283Z,16.50
2023-03-07T16:50:30.177Z,16.30
2023-03-07T16:53:17.852Z,16.20
2023-03-07T16:56:08.218Z,16.00
2023-03-07T16:58:56.721Z,15.80
2023-03-07T17:01:49.469Z,15.70
2023-03-07T17:04:37.042Z,15.50
2023-03-07T17:07:26.559Z,15.40
2023-03-07T17:10:14.704Z,15.20
2023-03-07T17:13:03.352Z,15.20
2023-03-07T17:15:51.113Z,15.00
2023-03-07T17:18:38.619Z,14.90
2023-03-07T17:21:26.135Z,14.80
2023-03-07T17:24:13.556Z,14.60
2023-03-07T17:27:05.751Z,14.40
2023-03-07T17:29:55.234Z,14.30
2023-03-07T17:32:42.794Z,14.20
2023-03-07T17:35:30.811Z,14.10
2023-03-07T17:38:18.470Z,14.10
2023-03-07T17:41:06.020Z,14.00
2023-03-07T17:43:53.991Z,13.80
2023-03-07T17:46:41.532Z,13.60
2023-03-07T17:49:37.864Z,13.60
2023-03-07T17:52:25.510Z,13.50
2023-03-07T17:55:15.733Z,13.40
2023-03-07T17:58:03.218Z,13.30
2023-03-07T18:00:50.738Z,13.20
2023-03-07T18:03:39.288Z,13.10
2023-03-07T18:06:27.336Z,13.10
2023-03-07T18:09:15.497Z,13.00
2023-03-07T18:12:02.991Z,12.90
2023-03-07T18:14:50.572Z,12.90
2023-03-07T18:17:47.382Z,12.80
2023-03-07T18:20:36.146Z,12.70
2023-03-07T18:23:23.562Z,12.60
2023-03-07T18:26:14.661Z,12.60
2023-03-07T18:29:02.292Z,12.50
2023-03-07T18:31:50.313Z,12.40
2023-03-07T18:34:37.725Z,12.30
2023-03-07T18:37:25.241Z,12.40
2023-03-07T18:40:13.760Z,12.50
2023-03-07T18:43:01.307Z,12.50
2023-03-07T18:45:49.201Z,12.60
2023-03-07T18:48:37.186Z,12.60
2023-03-07T18:51:27.009Z,12.80
2023-03-07T18:54:16.705Z,12.70
2023-03-07T18:57:04.413Z,12.80
2023-03-07T18:59:51.941Z,12.10
2023-03-07T19:02:39.676Z,12.50
2023-03-07T19:05:27.149Z,12.70
2023-03-07T19:08:16.613Z,12.60
2023-03-07T19:11:06.598Z,12.60
2023-03-07T19:13:54.151Z,12.60
2023-03-07T19:16:41.752Z,12.60
2023-03-07T19:19:29.324Z,12.60
2023-03-07T19:22:21.531Z,12.60
2023-03-07T19:25:10.087Z,12.50
2023-03-07T19:27:57.583Z,12.50
2023-03-07T19:30:45.043Z,12.40
2023-03-07T19:33:32.481Z,12.30
2023-03-07T19:36:26.190Z,12.20
2023-03-07T19:39:20.607Z,12.20
2023-03-07T19:42:08.226Z,12.20
2023-03-07T19:44:56.154Z,12.00
2023-03-07T19:47:43.652Z,11.90
2023-03-07T19:50:31.121Z,11.90
2023-03-07T19:53:20.076Z,11.90
2023-03-07T19:56:17.813Z,11.90
2023-03-07T19:59:08.407Z,11.90
2023-03-07T20:01:56.107Z,11.90
2023-03-07T20:04:43.608Z,11.80
2023-03-07T20:07:31.238Z,11.80
2023-03-07T20:10:18.931Z,11.70
2023-03-07T20:13:07.523Z,11.70
2023-03-07T20:15:55.112Z,11.60
2023-03-07T20:18:42.657Z,11.60
2023-03-07T20:21:30.525Z,11.60
2023-03-07T20:24:18.917Z,11.50
2023-03-07T20:27:06.408Z,11.50
2023-03-07T20:29:53.907Z,11.50
2023-03-07T20:32:41.969Z,11.50
2023-03-07T20:35:29.489Z,11.40
2023-03-07T20:38:16.947Z,11.50
2023-03-07T20:41:13.323Z,11.50
2023-03-07T20:44:04.682Z,11.50
2023-03-07T20:46:52.181Z,11.40
2023-03-07T20:49:39.821Z,11.40
2023-03-07T20:52:27.336Z,11.40
2023-03-07T20:55:14.853Z,11.30
2023-03-07T20:58:02.289Z,11.20
2023-03-07T21:00:53.303Z,11.10
2023-03-07T21:03:40.729Z,10.90
2023-03-07T21:06:28.764Z,10.80
2023-03-07T21:09:18.409Z,10.80
2023-03-07T21:12:08.531Z,10.80
2023-03-07T21:14:55.966Z,10.80
2023-03-07T21:17:43.471Z,10.80
2023-03-07T21:20:30.894Z,10.70
2023-03-07T21:23:18.898Z,10.60
2023-03-07T21:26:16.725Z,10.70
2023-03-07T21:29:05.447Z,10.80
2023-03-07T21:31:54.091Z,10.90
2023-03-07T21:34:41.598Z,11.00
2023-03-07T21:37:29.074Z,11.10
2023-03-07T21:40:16.965Z,11.20
2023-03-07T21:43:04.408Z,11.40
2023-03-07T21:45:52.545Z,11.40
2023-03-07T21:48:41.358Z,11.60
2023-03-07T21:51:29.015Z,11.60
2023-03-07T21:54:16.573Z,11.80
2023-03-07T21:57:04.402Z,11.70
2023-03-07T21:59:51.949Z,11.80
2023-03-07T22:02:39.376Z,12.10
2023-03-07T22:05:26.790Z,12.20
2023-03-07T22:08:18.348Z,12.20
2023-03-07T22:11:09.075Z,12.40
2023-03-07T22:13:56.562Z,12.40
2023-03-07T22:16:44.125Z,12.40
2023-03-07T22:19:31.667Z,12.40
2023-03-07T22:22:22.261Z,12.40
2023-03-07T22:25:10.266Z,12.50
2023-03-07T22:27:57.681Z,12.40
2023-03-07T22:30:46.952Z,12.50
2023-03-07T22:33:36.389Z,12.50
2023-03-07T22:36:23.841Z,12.50
2023-03-07T22:39:11.295Z,12.50
2023-03-07T22:41:58.768Z,12.60
2023-03-07T22:44:46.213Z,12.70
2023-03-07T22:47:34.896Z,12.80
2023-03-07T22:50:22.425Z,12.70
2023-03-07T22:53:10.368Z,12.70
2023-03-07T22:55:59.650Z,12.70
2023-03-07T22:58:47.623Z,12.80
2023-03-07T23:01:35.277Z,12.70
2023-03-07T23:04:22.722Z,12.70
2023-03-07T23:07:10.516Z,13.00
2023-03-07T23:09:57.931Z,13.10
2023-03-07T23:12:45.412Z,12.90
2023-03-07T23:15:32.944Z,13.00
2023-03-07T23:18:20.453Z,13.00
2023-03-07T23:21:15.287Z,13.00
2023-03-07T23:24:04.650Z,13.00
2023-03-07T23:26:52.106Z,13.10
2023-03-07T23:29:39.535Z,13.20
2023-03-07T23:32:27.360Z,13.10
2023-03-07T23:35:14.968Z,13.20
2023-03-07T23:38:04.261Z,13.20
2023-03-07T23:40:51.692Z,13.00
2023-03-07T23:43:39.152Z,13.30
2023-03-07T23:46:29.646Z,13.30
2023-03-07T23:49:18.567Z,13.50
2023-03-07T23:52:06.090Z,13.40
2023-03-07T23:54:53.530Z,13.50
2023-03-07T23:57:41.970Z,13.40
